Time;durP1;ratioP1;P1;durP2;ratioP2;P2;SDS_P1;SDS_P2;PMS_P1;PMS_P2;Temp;Humidity;BMP_temperature;BMP_pressure;BME280_temperature;BME280_humidity;BME280_pressure;Samples;Min_cycle;Max_cycle;Signal;HPM_P1;HPM_P2
2022/07/18 00:02:03;;;;;;;4.03;1.95;;;;;;;23.35;43.90;102386.38;5092677;28;20024;-73
2022/07/18 00:04:29;;;;;;;3.78;1.80;;;;;;;23.33;44.07;102375.84;5093065;28;20059;-73
2022/07/18 00:06:55;;;;;;;4.00;1.60;;;;;;;23.32;44.10;102373.31;5092344;28;20112;-73
2022/07/18 00:09:23;;;;;;;3.40;1.50;;;;;;;23.30;44.29;102369.94;5092476;28;20043;-73
2022/07/18 00:11:50;;;;;;;4.15;1.80;;;;;;;23.30;44.17;102372.59;5092589;28;20036;-74
2022/07/18 00:14:16;;;;;;;3.50;1.50;;;;;;;23.29;43.68;102371.78;5093064;28;20020;-73
2022/07/18 00:16:41;;;;;;;3.95;1.60;;;;;;;23.29;44.21;102368.25;5092037;28;20020;-73
2022/07/18 00:19:06;;;;;;;3.55;1.70;;;;;;;23.27;44.30;102368.38;5093144;28;20032;-74
2022/07/18 00:21:33;;;;;;;5.57;1.73;;;;;;;23.26;44.45;102365.84;5092895;28;20025;-73
2022/07/18 00:23:58;;;;;;;4.22;1.80;;;;;;;23.26;44.01;102360.53;5092150;28;20031;-74
2022/07/18 00:26:23;;;;;;;4.53;1.83;;;;;;;23.25;44.01;102358.84;5093092;28;20028;-73
2022/07/18 00:28:49;;;;;;;2.83;1.60;;;;;;;23.23;44.07;102358.97;5092676;28;20073;-73
2022/07/18 00:31:17;;;;;;;3.70;1.80;;;;;;;23.22;43.97;102351.94;5092155;28;20279;-73
2022/07/18 00:33:42;;;;;;;3.40;1.60;;;;;;;23.23;43.92;102345.66;5092517;28;20633;-73
2022/07/18 00:36:10;;;;;;;3.92;1.40;;;;;;;23.22;44.04;102346.63;5093038;28;20111;-73
2022/07/18 00:38:36;;;;;;;3.20;1.60;;;;;;;23.22;44.22;102343.94;5091888;28;20051;-73
2022/07/18 00:41:02;;;;;;;3.53;1.63;;;;;;;23.22;44.22;102343.13;5093040;28;20417;-73
2022/07/18 00:43:30;;;;;;;3.00;1.58;;;;;;;23.21;44.24;102336.09;5092874;28;20486;-73
2022/07/18 00:45:56;;;;;;;4.53;2.00;;;;;;;23.21;43.96;102341.41;5091569;28;20027;-72
2022/07/18 00:48:24;;;;;;;4.97;2.10;;;;;;;23.19;44.17;102328.25;5092889;28;20028;-73
2022/07/18 00:50:50;;;;;;;3.33;1.75;;;;;;;23.19;44.01;102336.22;5092694;28;20016;-73
2022/07/18 00:53:15;;;;;;;3.80;1.75;;;;;;;23.17;44.03;102336.34;5092052;28;20027;-73
2022/07/18 00:55:44;;;;;;;3.17;1.63;;;;;;;23.17;43.84;102340.81;5092564;28;20051;-73
2022/07/18 00:58:11;;;;;;;7.88;1.67;;;;;;;23.16;43.63;102337.34;5092072;28;20066;-74
2022/07/18 01:03:24;;;;;;;4.07;1.67;;;;;;;23.15;43.88;102330.31;5092787;28;20445;-73
2022/07/18 01:05:50;;;;;;;3.35;1.65;;;;;;;23.14;43.73;102336.59;5091507;28;20027;-73
2022/07/18 01:08:15;;;;;;;3.40;1.60;;;;;;;23.13;44.04;102324.28;5092571;28;20036;-73
2022/07/18 01:10:41;;;;;;;4.03;1.70;;;;;;;23.13;44.01;102321.63;5092444;28;20055;-74
2022/07/18 01:13:06;;;;;;;6.05;1.90;;;;;;;23.11;43.89;102318.22;5091591;28;20128;-73
2022/07/18 01:15:32;;;;;;;4.35;1.75;;;;;;;23.11;43.88;102326.19;5092848;28;20044;-73
2022/07/18 01:17:57;;;;;;;3.70;1.50;;;;;;;23.12;43.54;102319.91;5094707;28;20028;-73
2022/07/18 01:20:27;;;;;;;3.63;1.63;;;;;;;23.13;44.00;102318.09;5095128;28;20036;-73
2022/07/18 01:22:52;;;;;;;4.05;1.65;;;;;;;23.11;43.67;102307.56;5096213;28;20024;-73
2022/07/18 01:25:18;;;;;;;3.55;1.65;;;;;;;23.10;43.89;102311.22;5096302;28;20024;-73
2022/07/18 01:27:43;;;;;;;5.07;1.80;;;;;;;23.10;43.80;102305.91;5095296;28;20107;-73
2022/07/18 01:30:09;;;;;;;4.50;2.03;;;;;;;23.11;43.94;102307.56;5096317;28;20269;-73
2022/07/18 01:32:34;;;;;;;3.47;1.80;;;;;;;23.09;44.00;102309.53;5096129;28;20280;-74
2022/07/18 01:35:02;;;;;;;4.07;2.03;;;;;;;23.10;44.00;102310.38;5095519;28;20401;-73
2022/07/18 01:37:27;;;;;;;3.78;1.98;;;;;;;23.09;43.90;102308.69;5096149;28;20107;-73
2022/07/18 01:39:55;;;;;;;3.47;1.90;;;;;;;23.09;43.92;102314.00;5095843;28;20460;-73
2022/07/18 01:42:20;;;;;;;3.83;1.67;;;;;;;23.08;43.81;102313.16;5095120;28;20265;-73
2022/07/18 01:44:46;;;;;;;5.72;1.70;;;;;;;23.07;44.01;102314.09;5095736;28;20161;-73
2022/07/18 01:47:12;;;;;;;4.10;2.05;;;;;;;23.07;44.17;102321.22;5095723;28;20054;-73
2022/07/18 01:49:39;;;;;;;4.28;1.80;;;;;;;23.07;44.05;102321.22;5095077;28;20103;-73
2022/07/18 01:52:04;;;;;;;3.30;1.70;;;;;;;23.06;44.15;102320.38;5095639;28;20112;-73
2022/07/18 01:54:32;;;;;;;3.65;1.73;;;;;;;23.06;44.38;102320.38;5076588;28;20474;-73
2022/07/18 01:57:03;;;;;;;4.13;1.80;;;;;;;23.05;44.21;102313.38;5095169;28;20039;-73
2022/07/18 01:59:28;;;;;;;3.70;1.83;;;;;;;23.05;44.12;102310.72;5095648;28;20024;-73
2022/07/18 02:01:53;;;;;;;3.33;1.60;;;;;;;23.05;43.92;102308.06;5093434;28;20620;-73
2022/07/18 02:04:59;;;;;;;4.82;2.47;;;;;;;23.05;43.97;102301.88;5095282;28;20478;-73
2022/07/18 02:07:13;;;;;;;4.63;2.10;;;;;;;23.04;44.43;102308.19;5094989;28;20030;-73
2022/07/18 02:09:38;;;;;;;4.50;1.90;;;;;;;23.04;44.13;102308.19;5094171;28;20408;-73
2022/07/18 02:12:04;;;;;;;5.65;2.13;;;;;;;23.04;43.96;102300.22;5094967;28;20121;-73
2022/07/18 02:14:29;;;;;;;4.78;1.80;;;;;;;23.03;43.88;102299.34;5095253;28;20064;-73
2022/07/18 02:16:54;;;;;;;4.00;2.00;;;;;;;23.04;44.11;102294.88;5093853;28;20024;-73
2022/07/18 02:19:20;;;;;;;4.22;1.70;;;;;;;23.02;43.87;102287.03;5095145;28;20276;-73
2022/07/18 02:21:45;;;;;;;3.57;1.77;;;;;;;23.03;44.03;102285.22;5094743;28;20016;-73
2022/07/18 02:24:10;;;;;;;4.45;1.88;;;;;;;23.03;43.91;102287.88;5094452;28;20276;-73
2022/07/18 02:26:36;;;;;;;4.32;1.88;;;;;;;23.02;43.86;102289.69;5094807;28;20029;-73
2022/07/18 02:29:01;;;;;;;3.90;1.70;;;;;;;23.01;43.95;102280.84;5093950;28;20081;-73
2022/07/18 02:31:26;;;;;;;4.13;2.00;;;;;;;23.00;43.83;102284.50;5095082;28;20016;-73
2022/07/18 02:33:51;;;;;;;4.78;1.80;;;;;;;22.99;43.86;102284.63;5095156;28;20273;-73
2022/07/18 02:36:17;;;;;;;3.20;1.50;;;;;;;23.00;44.24;102280.97;5094966;28;20070;-73
2022/07/18 02:38:42;;;;;;;4.50;1.80;;;;;;;22.99;43.64;102272.16;5093994;28;20024;-74
2022/07/18 02:41:10;;;;;;;6.70;2.00;;;;;;;22.98;44.03;102278.44;5095218;28;20280;-73
2022/07/18 02:43:36;;;;;;;5.60;1.60;;;;;;;22.96;44.16;102272.41;5093812;28;20272;-73
2022/07/18 02:46:03;;;;;;;3.92;1.80;;;;;;;22.98;44.03;102278.44;5092280;28;20041;-73
2022/07/18 02:48:28;;;;;;;3.40;1.70;;;;;;;22.99;44.24;102274.81;5095055;28;20032;-73
2022/07/18 02:50:53;;;;;;;3.22;1.60;;;;;;;22.98;44.14;102277.59;5093600;28;20490;-73
2022/07/18 02:53:23;;;;;;;4.47;2.00;;;;;;;22.98;44.19;102278.44;5094375;28;20353;-73
2022/07/18 02:55:51;;;;;;;4.10;1.80;;;;;;;22.97;43.96;102268.78;5094288;28;20284;-73
2022/07/18 02:58:17;;;;;;;3.83;1.85;;;;;;;22.98;44.22;102275.78;5093734;28;20050;-73
2022/07/18 03:00:42;;;;;;;3.83;1.67;;;;;;;22.97;44.04;102278.56;5093914;28;20024;-73
2022/07/18 03:03:10;;;;;;;4.18;1.80;;;;;;;22.96;43.94;102268.91;5094299;28;20060;-73
2022/07/18 03:05:36;;;;;;;4.80;2.28;;;;;;;22.96;43.98;102272.41;5092307;28;20479;-73
2022/07/18 03:08:01;;;;;;;4.70;1.83;;;;;;;22.95;44.09;102270.69;5094250;28;20040;-73
2022/07/18 03:10:29;;;;;;;3.67;1.80;;;;;;;22.95;44.08;102272.53;5094364;28;20624;-73
2022/07/18 03:12:54;;;;;;;4.07;1.80;;;;;;;22.92;44.40;102260.34;5092921;28;20052;-72
2022/07/18 03:15:20;;;;;;;3.83;1.77;;;;;;;22.92;44.30;102257.69;5094077;28;20035;-73
2022/07/18 03:17:45;;;;;;;4.22;1.90;;;;;;;22.90;44.40;102248.13;5093728;28;20318;-73
2022/07/18 03:20:11;;;;;;;5.00;2.00;;;;;;;22.91;44.10;102245.34;5093162;28;20024;-73
2022/07/18 03:22:36;;;;;;;4.13;2.00;;;;;;;22.91;44.24;102244.50;5093831;28;20751;-73
2022/07/18 03:25:01;;;;;;;4.75;2.00;;;;;;;22.91;44.11;102237.38;5093308;28;20105;-73
2022/07/18 03:27:27;;;;;;;5.55;2.17;;;;;;;22.90;44.11;102241.00;5093078;28;20490;-73
2022/07/18 03:29:52;;;;;;;4.07;1.67;;;;;;;22.89;43.93;102235.78;5093342;28;20024;-73
2022/07/18 03:32:17;;;;;;;3.77;1.80;;;;;;;22.89;44.11;102239.31;5093683;28;20284;-73
2022/07/18 03:34:43;;;;;;;3.33;1.85;;;;;;;22.88;44.22;102236.78;5092419;28;20752;-73
2022/07/18 03:37:08;;;;;;;3.45;1.70;;;;;;;22.89;43.86;102235.78;5093534;28;20031;-73
2022/07/18 03:39:35;;;;;;;5.07;1.97;;;;;;;22.87;44.08;102233.25;5093810;28;20058;-73
2022/07/18 03:42:01;;;;;;;4.07;1.85;;;;;;;22.87;44.00;102235.09;5091685;28;20748;-72
2022/07/18 03:44:26;;;;;;;4.53;1.98;;;;;;;22.88;44.07;102231.47;5093489;28;20031;-72
2022/07/18 03:46:53;;;;;;;4.07;2.00;;;;;;;22.86;44.20;102236.03;5092376;28;20028;-72
2022/07/18 03:49:19;;;;;;;4.25;2.10;;;;;;;22.87;44.43;102237.75;5093200;28;20046;-72
2022/07/18 03:51:44;;;;;;;4.82;1.90;;;;;;;22.85;44.36;102237.88;5093240;28;20020;-72
2022/07/18 03:54:09;;;;;;;3.63;1.60;;;;;;;22.84;44.37;102244.13;5092674;28;20326;-72
2022/07/18 03:56:35;;;;;;;3.58;1.77;;;;;;;22.83;44.21;102240.63;5092689;28;20059;-72
2022/07/18 03:59:01;;;;;;;4.68;1.80;;;;;;;22.82;44.03;102238.94;5093187;28;20024;-72
2022/07/18 04:01:26;;;;;;;4.70;2.10;;;;;;;22.82;44.65;102233.63;5092314;28;20368;-72
2022/07/18 04:03:54;;;;;;;3.97;1.83;;;;;;;22.82;44.24;102236.28;5092737;28;20487;-72
2022/07/18 04:06:19;;;;;;;5.88;2.00;;;;;;;22.82;44.38;102236.28;5092185;28;20032;-72
2022/07/18 04:08:44;;;;;;;4.10;2.00;;;;;;;22.80;44.25;102229.41;5092133;28;20028;-72
2022/07/18 04:11:10;;;;;;;5.05;2.00;;;;;;;22.80;44.30;102230.25;5092656;28;20850;-72
2022/07/18 04:13:35;;;;;;;4.10;1.83;;;;;;;22.80;44.39;102232.06;5092732;28;20031;-72
2022/07/18 04:16:00;;;;;;;4.20;2.03;;;;;;;22.79;44.19;102233.88;5092130;28;20020;-72
2022/07/18 04:18:26;;;;;;;3.80;1.80;;;;;;;22.82;44.44;102230.13;5092710;28;20476;-72
2022/07/18 04:20:51;;;;;;;3.83;1.80;;;;;;;22.79;44.49;102223.22;5092716;28;20464;-72
2022/07/18 04:23:19;;;;;;;4.03;1.85;;;;;;;22.81;44.32;102223.97;5091918;28;20448;-72
2022/07/18 04:25:45;;;;;;;4.05;1.80;;;;;;;22.80;44.04;102216.13;5092045;28;20062;-72
2022/07/18 04:28:12;;;;;;;4.60;2.22;;;;;;;22.80;44.03;102213.47;5092837;28;20395;-72
2022/07/18 04:30:40;;;;;;;4.10;1.90;;;;;;;22.81;44.38;102212.47;5091587;28;20019;-72
2022/07/18 04:33:07;;;;;;;3.70;1.60;;;;;;;22.82;44.11;102208.88;5092593;28;20483;-72
2022/07/18 04:35:35;;;;;;;3.83;1.95;;;;;;;22.79;44.40;102201.97;5092537;28;20024;-72
2022/07/18 04:38:01;;;;;;;4.35;1.90;;;;;;;22.82;44.15;102204.38;5091783;28;20035;-72
2022/07/18 04:40:26;;;;;;;4.20;1.92;;;;;;;22.82;44.25;102211.53;5092493;28;20028;-72
2022/07/18 04:42:52;;;;;;;3.57;1.83;;;;;;;22.82;43.97;102208.88;5092530;28;20024;-72
2022/07/18 04:45:21;;;;;;;4.43;1.70;;;;;;;22.81;44.16;102200.06;5091774;28;20670;-72
2022/07/18 04:47:48;;;;;;;3.53;1.60;;;;;;;22.82;44.06;102211.53;5091938;28;20024;-72
2022/07/18 04:50:13;;;;;;;4.25;1.80;;;;;;;22.80;44.38;102205.50;5091946;28;20052;-72
2022/07/18 04:52:41;;;;;;;3.58;1.58;;;;;;;22.83;44.10;102205.25;5094234;28;20056;-72
2022/07/18 04:55:08;;;;;;;4.22;1.98;;;;;;;22.83;44.43;102211.41;5096543;28;20494;-72
2022/07/18 04:57:34;;;;;;;3.20;1.60;;;;;;;22.83;44.28;102214.06;5095832;28;20027;-72
2022/07/18 05:00:00;;;;;;;4.07;1.88;;;;;;;22.83;44.41;102219.38;5095396;28;20036;-72
2022/07/18 05:02:25;;;;;;;5.78;2.10;;;;;;;22.82;44.48;102209.69;5096346;28;20027;-72
2022/07/18 05:04:50;;;;;;;4.57;1.90;;;;;;;22.84;44.24;102220.22;5095546;28;20027;-72
2022/07/18 05:07:16;;;;;;;4.40;2.00;;;;;;;22.85;44.11;102215.75;5096467;28;20047;-72
2022/07/18 05:09:41;;;;;;;4.23;2.10;;;;;;;22.83;44.18;102208.75;5095858;28;20275;-72
2022/07/18 05:12:06;;;;;;;3.92;1.98;;;;;;;22.84;44.54;102209.59;5095368;28;20323;-71
2022/07/18 05:14:31;;;;;;;5.03;2.03;;;;;;;22.85;44.34;102210.44;5096324;28;20456;-71
2022/07/18 05:16:57;;;;;;;5.28;1.90;;;;;;;22.85;44.41;102207.78;5095660;28;20291;-71
2022/07/18 05:19:25;;;;;;;4.22;1.90;;;;;;;22.86;44.25;102212.97;5095578;28;20082;-71
2022/07/18 05:21:50;;;;;;;6.22;2.75;;;;;;;22.86;44.27;102212.97;5095929;28;20093;-71
2022/07/18 05:24:16;;;;;;;5.20;2.50;;;;;;;22.86;44.17;102210.31;5096162;28;20493;-71
2022/07/18 05:26:41;;;;;;;4.55;1.85;;;;;;;22.88;44.33;102220.84;5094810;28;20276;-71
2022/07/18 05:29:07;;;;;;;4.40;1.80;;;;;;;22.87;44.15;102212.00;5095909;28;20082;-71
2022/07/18 05:31:32;;;;;;;3.90;1.80;;;;;;;22.86;44.56;102210.31;5095906;28;20897;-71
2022/07/18 05:33:57;;;;;;;4.10;1.88;;;;;;;22.88;44.55;102215.53;5094638;28;20024;-72
2022/07/18 05:36:23;;;;;;;5.63;1.90;;;;;;;22.89;44.39;102212.75;5095712;28;20107;-71
2022/07/18 05:38:48;;;;;;;4.00;1.80;;;;;;;22.89;44.54;102218.06;5095353;28;20752;-72
2022/07/18 05:41:14;;;;;;;4.25;1.80;;;;;;;22.89;44.27;102219.84;5094872;28;20032;-72
2022/07/18 05:43:39;;;;;;;5.78;1.80;;;;;;;22.89;44.25;102227.81;5095461;28;20024;-71
2022/07/18 05:46:05;;;;;;;4.25;2.20;;;;;;;22.88;44.20;102221.66;5095755;28;20104;-72
2022/07/18 05:48:30;;;;;;;4.28;1.85;;;;;;;22.88;44.32;102219.00;5094693;28;20024;-72
2022/07/18 05:50:56;;;;;;;4.27;1.80;;;;;;;22.89;44.15;102217.19;5095286;28;20111;-72
2022/07/18 05:53:21;;;;;;;4.73;1.63;;;;;;;22.90;44.37;102218.88;5095634;28;20280;-71
2022/07/18 05:55:46;;;;;;;4.45;2.03;;;;;;;22.89;44.32;102218.06;5094408;28;20276;-69
2022/07/18 05:58:11;;;;;;;7.63;3.10;;;;;;;22.89;42.36;102219.84;5095422;28;20028;-66
2022/07/18 06:00:38;;;;;;;8.77;3.83;;;;;;;22.76;40.74;102210.19;5094216;28;20475;-67
2022/07/18 06:03:03;;;;;;;8.57;3.70;;;;;;;22.62;40.62;102205.13;5094916;28;20533;-66
2022/07/18 06:05:28;;;;;;;7.07;3.85;;;;;;;22.50;40.96;102211.44;5094421;28;20036;-67
2022/07/18 06:07:55;;;;;;;9.20;3.90;;;;;;;22.39;41.58;102217.59;5094233;28;20040;-66
2022/07/18 06:10:22;;;;;;;9.10;3.35;;;;;;;22.27;42.72;102214.88;5095220;28;20351;-66
2022/07/18 06:12:47;;;;;;;8.05;3.78;;;;;;;22.18;42.46;102215.59;5094658;28;20036;-70
2022/07/18 06:15:17;;;;;;;8.80;4.05;;;;;;;22.15;43.31;102223.78;5094210;28;20107;-70
2022/07/18 06:17:43;;;;;;;8.82;3.67;;;;;;;22.09;42.87;102218.94;5094978;28;20066;-71
2022/07/18 06:20:10;;;;;;;10.50;4.00;;;;;;;22.06;42.17;102222.72;5095156;28;20491;-72
2022/07/18 06:22:36;;;;;;;10.00;4.00;;;;;;;22.05;41.95;102214.88;5093997;28;20028;-73
2022/07/18 06:25:03;;;;;;;7.80;3.58;;;;;;;22.04;42.29;102206.03;5094957;28;20016;-71
2022/07/18 06:27:28;;;;;;;7.40;3.47;;;;;;;22.04;42.35;102199.88;5094733;28;20103;-71
2022/07/18 06:29:53;;;;;;;7.50;3.47;;;;;;;22.05;43.15;102201.59;5093820;28;20610;-71
2022/07/18 06:32:19;;;;;;;6.97;3.38;;;;;;;22.04;44.92;102195.41;5094886;28;20067;-69
2022/07/18 06:34:44;;;;;;;10.07;3.58;;;;;;;22.02;43.16;102197.34;5094703;28;20036;-71
2022/07/18 06:37:09;;;;;;;8.20;3.43;;;;;;;22.03;42.82;102192.88;5094262;28;20099;-71
2022/07/18 06:39:40;;;;;;;9.60;3.55;;;;;;;22.05;42.75;102201.59;5094650;28;20280;-71
2022/07/18 06:42:08;;;;;;;6.43;3.25;;;;;;;22.05;42.73;102193.63;5094779;28;20024;-70
2022/07/18 06:44:33;;;;;;;7.82;3.78;;;;;;;22.08;43.08;102190.72;5093775;28;20024;-69
2022/07/18 06:46:59;;;;;;;8.90;4.13;;;;;;;22.11;43.11;102185.16;5094705;28;20020;-69
2022/07/18 06:49:25;;;;;;;9.40;3.80;;;;;;;22.14;42.68;102181.44;5094603;28;20032;-71
2022/07/18 06:51:51;;;;;;;7.43;3.45;;;;;;;22.18;42.40;102189.03;5093558;28;20054;-70
2022/07/18 06:54:16;;;;;;;9.32;3.53;;;;;;;22.20;42.01;102179.13;5096193;28;20020;-68
2022/07/18 06:56:45;;;;;;;8.02;3.30;;;;;;;22.24;42.25;102169.97;5094783;28;20114;-72
2022/07/18 06:59:10;;;;;;;8.05;3.20;;;;;;;22.27;42.52;102174.19;5094834;28;20028;-79
2022/07/18 07:01:35;;;;;;;6.33;2.67;;;;;;;22.33;42.58;102180.88;5094359;28;20361;-74
2022/07/18 07:04:00;;;;;;;6.80;3.10;;;;;;;22.40;42.15;102180.28;5093906;28;20760;-73
2022/07/18 07:06:26;;;;;;;9.03;2.53;;;;;;;22.50;41.65;102182.22;5095622;28;20322;-78
2022/07/18 07:08:51;;;;;;;6.85;2.90;;;;;;;22.57;41.87;102181.59;5094538;28;20291;-74
2022/07/18 07:11:21;;;;;;;7.15;2.90;;;;;;;22.72;41.00;102184.84;5093832;28;20074;-74
2022/07/18 07:13:47;;;;;;;7.05;2.75;;;;;;;22.83;40.63;102187.47;5094055;28;20055;-78
2022/07/18 07:16:15;;;;;;;6.85;2.60;;;;;;;22.94;40.73;102180.44;5093998;28;20063;-71
2022/07/18 07:18:40;;;;;;;5.82;2.25;;;;;;;22.96;40.24;102184.69;5093038;28;20020;-71
2022/07/18 07:21:06;;;;;;;9.57;3.22;;;;;;;22.97;40.08;102188.16;5094279;28;20028;-67
2022/07/18 07:23:33;;;;;;;7.32;3.03;;;;;;;22.97;40.25;102188.16;5093968;28;20051;-66
2022/07/18 07:25:58;;;;;;;6.22;2.38;;;;;;;22.97;39.25;102190.81;5092806;28;20095;-64
2022/07/18 07:28:23;;;;;;;5.47;2.30;;;;;;;22.98;39.52;102188.03;5093659;28;20028;-68
2022/07/18 07:30:51;;;;;;;8.50;2.70;;;;;;;23.00;39.90;102187.91;5093622;28;20082;-65
2022/07/18 07:33:17;;;;;;;6.03;2.25;;;;;;;23.01;40.55;102185.13;5092963;28;20343;-65
2022/07/18 07:35:45;;;;;;;6.10;2.25;;;;;;;23.04;40.16;102183.22;5093360;28;20099;-65
2022/07/18 07:38:17;;;;;;;6.60;2.60;;;;;;;23.06;39.48;102189.25;5093552;28;20069;-65
2022/07/18 07:40:43;;;;;;;4.68;2.28;;;;;;;23.08;39.41;102185.53;5092319;28;20050;-65
2022/07/18 07:43:11;;;;;;;6.05;2.25;;;;;;;23.10;39.11;102188.06;5093676;28;20031;-65
2022/07/18 07:45:37;;;;;;;6.72;2.05;;;;;;;23.13;39.32;102190.44;5093352;28;20055;-65
2022/07/18 07:48:03;;;;;;;13.52;2.33;;;;;;;23.15;39.25;102184.06;5092828;28;20051;-65
2022/07/18 07:50:29;;;;;;;7.13;2.30;;;;;;;23.17;39.32;102182.09;5093327;28;20016;-65
2022/07/18 07:52:55;;;;;;;7.82;2.67;;;;;;;23.20;39.80;102180.19;5093015;28;20115;-65
2022/07/18 07:55:20;;;;;;;5.90;2.45;;;;;;;23.23;39.69;102177.28;5092940;28;20067;-64
2022/07/18 07:57:48;;;;;;;4.43;2.00;;;;;;;23.24;40.27;102173.63;5092804;28;20028;-65
2022/07/18 08:00:14;;;;;;;7.28;2.08;;;;;;;23.26;40.31;102159.25;5092395;28;20277;-65
2022/07/18 08:02:57;;;;;;;4.18;1.90;;;;;;;23.26;39.86;102156.56;5092884;28;20031;-65
2022/07/18 08:05:22;;;;;;;6.25;2.00;;;;;;;23.28;40.02;102151.13;5092284;28;20395;-64
2022/07/18 08:07:47;;;;;;;4.55;2.10;;;;;;;23.30;40.49;102154.50;5091781;28;20537;-65
2022/07/18 08:10:13;;;;;;;5.50;1.98;;;;;;;23.32;39.87;102150.75;5093134;28;20024;-65
2022/07/18 08:12:39;;;;;;;5.32;1.85;;;;;;;23.32;39.97;102152.56;5092554;28;20507;-65
2022/07/18 08:15:04;;;;;;;5.00;1.92;;;;;;;23.34;40.80;102153.28;5092327;28;20472;-71
2022/07/18 08:17:30;;;;;;;4.97;2.10;;;;;;;23.35;40.62;102137.19;5092994;28;20111;-68
2022/07/18 08:19:55;;;;;;;5.35;2.05;;;;;;;23.36;40.66;102143.34;5092617;28;20077;-70
2022/07/18 08:22:20;;;;;;;4.50;1.73;;;;;;;23.39;40.71;102139.59;5092150;28;20065;-72
2022/07/18 08:24:46;;;;;;;4.78;1.90;;;;;;;23.41;40.51;102142.97;5092786;28;20020;-69
2022/07/18 08:27:11;;;;;;;5.05;1.80;;;;;;;23.45;40.41;102131.09;5092408;28;20043;-70
2022/07/18 08:29:36;;;;;;;4.70;2.33;;;;;;;23.48;40.79;102139.69;5091656;28;20435;-71
2022/07/18 08:32:02;;;;;;;5.25;2.03;;;;;;;23.51;40.65;102135.91;5092839;28;20025;-71
2022/07/18 08:34:31;;;;;;;4.80;1.80;;;;;;;23.52;41.00;102141.09;5092821;28;20506;-71
2022/07/18 08:36:56;;;;;;;6.22;2.03;;;;;;;23.54;41.12;102140.97;5091639;28;20437;-69
2022/07/18 08:39:21;;;;;;;4.57;1.50;;;;;;;23.53;41.12;102141.94;5092850;28;20055;-69
2022/07/18 08:41:50;;;;;;;5.17;2.03;;;;;;;23.53;40.93;102145.44;5092367;28;20277;-69
2022/07/18 08:44:16;;;;;;;4.00;1.67;;;;;;;23.54;41.31;102140.97;5092092;28;20273;-69
2022/07/18 08:46:48;;;;;;;3.78;1.67;;;;;;;23.57;41.20;102147.84;5092319;28;20089;-71
2022/07/18 08:49:14;;;;;;;4.50;2.10;;;;;;;23.53;41.17;102142.78;5092135;28;20024;-70
2022/07/18 08:51:40;;;;;;;6.05;2.10;;;;;;;23.59;41.22;102153.88;5092215;28;20035;-70
2022/07/18 08:54:06;;;;;;;4.30;1.80;;;;;;;23.60;41.47;102151.09;5092556;28;20040;-71
2022/07/18 08:56:31;;;;;;;4.85;1.85;;;;;;;23.62;41.42;102156.28;5091801;28;20020;-70
2022/07/18 08:58:56;;;;;;;4.35;1.58;;;;;;;23.64;41.51;102154.31;5092103;28;20032;-69
2022/07/18 09:01:22;;;;;;;4.22;1.73;;;;;;;23.66;41.78;102139.94;5092640;28;20028;-71
2022/07/18 09:04:14;;;;;;;3.83;1.80;;;;;;;23.69;41.75;102144.16;5091398;28;20098;-71
2022/07/18 09:06:50;;;;;;;5.65;1.80;;;;;;;23.72;41.63;102141.25;5091692;28;20072;-68
2022/07/18 09:09:17;;;;;;;5.97;1.58;;;;;;;23.73;41.96;102146.44;5092390;28;20024;-68
2022/07/18 09:11:54;;;;;;;5.03;1.95;;;;;;;23.75;41.87;102143.63;5091365;28;20233;-68
2022/07/18 09:14:32;;;;;;;5.05;1.90;;;;;;;23.77;41.66;102144.34;5092436;28;20379;-69
2022/07/18 09:17:13;;;;;;;4.90;1.95;;;;;;;23.78;42.06;102146.00;5092293;28;20031;-71
2022/07/18 09:19:41;;;;;;;5.18;1.63;;;;;;;23.80;41.72;102144.09;5091174;28;20035;-71
2022/07/18 09:22:22;;;;;;;5.22;1.92;;;;;;;23.81;42.00;102150.25;5092454;28;20036;-71
2022/07/18 09:24:58;;;;;;;5.60;2.10;;;;;;;23.83;42.40;102143.84;5091844;28;20031;-73
2022/07/18 09:27:37;;;;;;;4.55;1.77;;;;;;;23.89;42.25;102153.97;5092641;28;20044;-69
2022/07/18 09:30:15;;;;;;;4.15;1.60;;;;;;;23.97;42.45;102155.13;5092824;28;20029;-69
2022/07/18 09:32:41;;;;;;;4.70;1.92;;;;;;;24.03;42.04;102150.09;5091384;28;20048;-70
2022/07/18 09:35:17;;;;;;;4.93;1.85;;;;;;;24.11;42.03;102156.59;5094591;28;20024;-69
2022/07/18 09:38:14;;;;;;;5.57;1.73;;;;;;;24.12;42.45;102158.31;5092552;28;20139;-70
2022/07/18 09:40:52;;;;;;;3.65;1.55;;;;;;;24.15;42.29;102156.22;5074775;28;20032;-70
2022/07/18 09:43:20;;;;;;;6.88;1.90;;;;;;;24.18;42.17;102152.41;5095782;28;20492;-70
2022/07/18 09:45:50;;;;;;;3.78;1.65;;;;;;;24.18;42.04;102155.94;5094591;28;20667;-68
2022/07/18 09:48:18;;;;;;;4.57;2.25;;;;;;;24.20;42.11;102155.81;5095852;28;20032;-67
2022/07/18 09:50:51;;;;;;;5.90;1.90;;;;;;;24.22;42.58;102152.03;5095434;28;20372;-69
2022/07/18 09:53:23;;;;;;;7.40;2.05;;;;;;;24.25;42.18;102150.91;5095329;28;20027;-70
2022/07/18 09:55:57;;;;;;;5.78;1.83;;;;;;;24.24;42.23;102142.09;5095285;28;20391;-67
2022/07/18 09:58:32;;;;;;;4.03;1.70;;;;;;;24.24;42.20;102142.09;5095531;28;20487;-70
2022/07/18 10:00:59;;;;;;;5.72;1.98;;;;;;;24.23;42.47;102145.72;5094465;28;20024;-70
2022/07/18 10:03:25;;;;;;;4.55;1.70;;;;;;;24.23;41.76;102145.72;5095554;28;20024;-68
2022/07/18 10:05:54;;;;;;;5.13;1.70;;;;;;;24.25;42.06;102143.75;5095210;28;20479;-66
2022/07/18 10:08:22;;;;;;;5.05;1.65;;;;;;;24.26;42.11;102134.81;5094664;28;20028;-69
2022/07/18 10:10:50;;;;;;;4.18;1.40;;;;;;;24.26;41.75;102144.63;5095214;28;20031;-69
2022/07/18 10:13:17;;;;;;;4.45;1.70;;;;;;;24.28;41.89;102140.00;5095182;28;20040;-71
2022/07/18 10:15:45;;;;;;;5.72;1.80;;;;;;;24.32;42.02;102133.41;5094281;28;20456;-68
2022/07/18 10:18:17;;;;;;;2.88;1.48;;;;;;;24.39;41.91;102139.06;5095192;28;20054;-68
2022/07/18 10:20:46;;;;;;;4.05;1.50;;;;;;;24.40;41.92;102130.94;5094226;28;20020;-68
2022/07/18 10:23:23;;;;;;;5.20;1.70;;;;;;;24.41;41.55;102145.09;5094961;28;20027;-68
2022/07/18 10:26:16;;;;;;;4.78;1.65;;;;;;;24.39;41.91;102141.72;5095142;28;20425;-67
2022/07/18 10:29:00;;;;;;;4.13;1.70;;;;;;;24.35;42.46;102135.81;5093968;28;20471;-66
2022/07/18 10:31:30;;;;;;;4.45;1.60;;;;;;;24.34;42.57;102134.13;5094942;28;20036;-69
2022/07/18 10:34:30;;;;;;;6.10;1.70;;;;;;;24.28;42.71;102129.34;5094798;28;20016;-65
2022/07/18 10:36:56;;;;;;;5.32;1.73;;;;;;;24.25;42.79;102132.28;5065277;28;20142;-65
2022/07/18 10:39:36;;;;;;;3.95;1.52;;;;;;;24.21;42.63;102123.72;5094892;28;20065;-64
2022/07/18 10:42:08;;;;;;;6.00;1.90;;;;;;;24.19;42.59;102133.63;5094160;28;20388;-65
2022/07/18 10:44:39;;;;;;;4.82;1.58;;;;;;;24.17;43.08;102124.94;5095062;28;20032;-64
2022/07/18 10:47:20;;;;;;;4.90;1.58;;;;;;;24.15;43.00;102126.91;5094910;28;20035;-67
2022/07/18 10:49:48;;;;;;;5.22;1.77;;;;;;;24.12;42.76;102126.34;5093415;28;20051;-66
2022/07/18 10:52:52;;;;;;;5.93;1.63;;;;;;;24.10;42.99;102121.16;5094437;28;20020;-66
2022/07/18 10:55:23;;;;;;;4.05;1.55;;;;;;;24.08;43.23;102117.75;5094782;28;20471;-64
2022/07/18 10:57:52;;;;;;;3.90;1.50;;;;;;;24.07;42.97;102116.94;5093856;28;20466;-70
2022/07/18 11:00:37;;;;;;;3.47;1.60;;;;;;;24.08;42.79;102123.94;5095264;28;20416;-66
2022/07/18 11:03:10;;;;;;;3.45;1.50;;;;;;;24.10;43.15;102118.50;5094528;28;20055;-71
2022/07/18 11:05:49;;;;;;;5.32;1.63;;;;;;;24.14;43.10;102121.72;5095361;28;20027;-71
2022/07/18 11:08:17;;;;;;;5.00;1.55;;;;;;;24.15;42.69;102115.41;5094563;28;20102;-70
2022/07/18 11:10:57;;;;;;;4.53;1.80;;;;;;;24.17;42.68;102116.13;5093305;28;20032;-71
2022/07/18 11:13:28;;;;;;;3.58;1.60;;;;;;;24.19;42.98;102108.84;5094433;28;20043;-70
2022/07/18 11:16:19;;;;;;;8.38;1.63;;;;;;;24.20;43.28;102106.03;5094024;28;20020;-70
2022/07/18 11:18:45;;;;;;;5.65;1.95;;;;;;;24.18;43.43;102105.34;5093253;28;20038;-71
2022/07/18 11:21:23;;;;;;;4.65;1.60;;;;;;;24.16;42.99;102107.28;5094042;28;20470;-68
2022/07/18 11:23:54;;;;;;;3.72;1.50;;;;;;;24.15;43.09;102110.06;5094069;28;20062;-69
2022/07/18 11:26:22;;;;;;;4.43;1.55;;;;;;;24.14;43.54;102105.75;5093528;28;20089;-73
2022/07/18 11:28:55;;;;;;;3.38;1.50;;;;;;;24.16;42.99;102103.78;5093871;28;20024;-75
2022/07/18 11:31:21;;;;;;;6.15;1.75;;;;;;;24.17;43.37;102103.66;5093260;28;20094;-75